sensor_id;sensor_type;location;lat;lon;timestamp;pressure;altitude;pressure_sealevel;temperature;humidity
29815;BME280;16708;50.426;7.664;2023-04-28T00:04:38;984.90;;;12.77;60.91
29815;BME280;16708;50.426;7.664;2023-04-28T00:09:32;984.74;;;12.80;60.95
29815;BME280;16708;50.426;7.664;2023-04-28T00:14:26;984.81;;;12.68;63.67
29815;BME280;16708;50.426;7.664;2023-04-28T00:19:19;984.86;;;12.55;67.88
29815;BME280;16708;50.426;7.664;2023-04-28T00:24:13;984.88;;;12.50;66.63
29815;BME280;16708;50.426;7.664;2023-04-28T00:29:07;984.86;;;12.46;74.51
29815;BME280;16708;50.426;7.664;2023-04-28T00:34:01;984.87;;;12.33;83.88
29815;BME280;16708;50.426;7.664;2023-04-28T00:38:56;984.93;;;11.97;78.00
29815;BME280;16708;50.426;7.664;2023-04-28T00:43:50;984.71;;;11.53;100.00
29815;BME280;16708;50.426;7.664;2023-04-28T00:48:44;984.56;;;11.46;100.00
29815;BME280;16708;50.426;7.664;2023-04-28T00:53:37;984.55;;;11.43;100.00
29815;BME280;16708;50.426;7.664;2023-04-28T00:58:28;984.45;;;11.38;100.00
29815;BME280;16708;50.426;7.664;2023-04-28T01:03:22;984.34;;;11.22;100.00
29815;BME280;16708;50.426;7.664;2023-04-28T01:08:17;984.30;;;11.23;100.00
29815;BME280;16708;50.426;7.664;2023-04-28T01:13:11;984.27;;;11.14;100.00
29815;BME280;16708;50.426;7.664;2023-04-28T01:18:05;984.06;;;11.11;100.00
29815;BME280;16708;50.426;7.664;2023-04-28T01:22:58;984.05;;;11.06;100.00
29815;BME280;16708;50.426;7.664;2023-04-28T01:27:52;983.93;;;11.11;100.00
29815;BME280;16708;50.426;7.664;2023-04-28T01:32:45;983.90;;;11.09;100.00
29815;BME280;16708;50.426;7.664;2023-04-28T01:37:39;983.98;;;10.92;100.00
29815;BME280;16708;50.426;7.664;2023-04-28T01:42:33;983.93;;;10.91;100.00
29815;BME280;16708;50.426;7.664;2023-04-28T01:47:27;983.90;;;10.90;100.00
29815;BME280;16708;50.426;7.664;2023-04-28T01:52:21;983.74;;;10.95;100.00
29815;BME280;16708;50.426;7.664;2023-04-28T01:57:15;983.72;;;11.00;100.00
29815;BME280;16708;50.426;7.664;2023-04-28T02:02:07;983.60;;;11.06;100.00
29815;BME280;16708;50.426;7.664;2023-04-28T02:07:01;983.62;;;11.16;100.00
29815;BME280;16708;50.426;7.664;2023-04-28T02:11:55;983.60;;;11.23;100.00
29815;BME280;16708;50.426;7.664;2023-04-28T02:16:49;983.47;;;11.34;100.00
29815;BME280;16708;50.426;7.664;2023-04-28T02:21:43;983.49;;;11.43;100.00
29815;BME280;16708;50.426;7.664;2023-04-28T02:26:38;983.45;;;11.38;100.00
29815;BME280;16708;50.426;7.664;2023-04-28T02:31:30;983.40;;;11.41;100.00
29815;BME280;16708;50.426;7.664;2023-04-28T02:36:25;983.44;;;11.43;100.00
29815;BME280;16708;50.426;7.664;2023-04-28T02:41:19;983.34;;;11.42;100.00
29815;BME280;16708;50.426;7.664;2023-04-28T02:46:13;983.47;;;11.34;100.00
29815;BME280;16708;50.426;7.664;2023-04-28T02:51:07;983.55;;;11.12;100.00
29815;BME280;16708;50.426;7.664;2023-04-28T02:56:01;983.54;;;10.75;100.00
29815;BME280;16708;50.426;7.664;2023-04-28T03:00:55;983.51;;;10.71;100.00
29815;BME280;16708;50.426;7.664;2023-04-28T03:05:49;983.55;;;10.62;100.00
29815;BME280;16708;50.426;7.664;2023-04-28T03:10:42;983.47;;;10.55;100.00
29815;BME280;16708;50.426;7.664;2023-04-28T03:15:37;983.49;;;10.40;100.00
29815;BME280;16708;50.426;7.664;2023-04-28T03:20:30;983.39;;;10.29;100.00
29815;BME280;16708;50.426;7.664;2023-04-28T03:25:23;983.42;;;10.10;100.00
29815;BME280;16708;50.426;7.664;2023-04-28T03:30:18;983.34;;;10.01;100.00
29815;BME280;16708;50.426;7.664;2023-04-28T03:35:12;983.19;;;9.90;100.00
29815;BME280;16708;50.426;7.664;2023-04-28T03:40:06;983.07;;;9.89;100.00
29815;BME280;16708;50.426;7.664;2023-04-28T03:44:59;983.01;;;9.82;100.00
29815;BME280;16708;50.426;7.664;2023-04-28T03:49:52;982.93;;;9.77;100.00
29815;BME280;16708;50.426;7.664;2023-04-28T03:54:46;982.80;;;9.84;100.00
29815;BME280;16708;50.426;7.664;2023-04-28T03:59:40;982.76;;;9.88;100.00
29815;BME280;16708;50.426;7.664;2023-04-28T04:04:33;982.78;;;9.92;100.00
29815;BME280;16708;50.426;7.664;2023-04-28T04:09:28;982.71;;;10.01;100.00
29815;BME280;16708;50.426;7.664;2023-04-28T04:14:22;982.66;;;10.17;100.00
29815;BME280;16708;50.426;7.664;2023-04-28T04:19:16;982.70;;;10.22;100.00
29815;BME280;16708;50.426;7.664;2023-04-28T04:24:10;982.68;;;10.29;100.00
29815;BME280;16708;50.426;7.664;2023-04-28T04:29:04;982.68;;;10.27;100.00
29815;BME280;16708;50.426;7.664;2023-04-28T04:33:58;982.60;;;10.26;100.00
29815;BME280;16708;50.426;7.664;2023-04-28T04:38:52;982.57;;;10.21;100.00
29815;BME280;16708;50.426;7.664;2023-04-28T04:43:44;982.63;;;10.23;100.00
29815;BME280;16708;50.426;7.664;2023-04-28T04:48:39;982.69;;;10.39;100.00
29815;BME280;16708;50.426;7.664;2023-04-28T04:53:33;982.56;;;10.41;100.00
29815;BME280;16708;50.426;7.664;2023-04-28T04:58:27;982.62;;;10.47;100.00
29815;BME280;16708;50.426;7.664;2023-04-28T05:03:21;982.71;;;10.23;100.00
29815;BME280;16708;50.426;7.664;2023-04-28T05:08:15;982.78;;;10.12;100.00
29815;BME280;16708;50.426;7.664;2023-04-28T05:13:07;982.81;;;10.00;100.00
29815;BME280;16708;50.426;7.664;2023-04-28T05:18:01;982.75;;;10.03;100.00
29815;BME280;16708;50.426;7.664;2023-04-28T05:22:55;982.67;;;9.98;100.00
29815;BME280;16708;50.426;7.664;2023-04-28T05:27:49;982.80;;;9.93;100.00
29815;BME280;16708;50.426;7.664;2023-04-28T05:32:43;982.84;;;9.94;100.00
29815;BME280;16708;50.426;7.664;2023-04-28T05:37:38;982.90;;;9.88;100.00
29815;BME280;16708;50.426;7.664;2023-04-28T05:42:30;982.95;;;9.99;100.00
29815;BME280;16708;50.426;7.664;2023-04-28T05:47:24;982.96;;;9.93;100.00
29815;BME280;16708;50.426;7.664;2023-04-28T05:52:18;982.80;;;10.00;100.00
29815;BME280;16708;50.426;7.664;2023-04-28T05:57:12;982.85;;;9.90;100.00
29815;BME280;16708;50.426;7.664;2023-04-28T06:02:06;982.95;;;9.93;100.00
29815;BME280;16708;50.426;7.664;2023-04-28T06:07:00;982.86;;;9.86;100.00
29815;BME280;16708;50.426;7.664;2023-04-28T06:11:54;982.88;;;9.81;100.00
29815;BME280;16708;50.426;7.664;2023-04-28T06:16:48;982.91;;;9.79;100.00
29815;BME280;16708;50.426;7.664;2023-04-28T06:21:40;982.99;;;9.84;100.00
29815;BME280;16708;50.426;7.664;2023-04-28T06:26:33;982.88;;;9.84;100.00
29815;BME280;16708;50.426;7.664;2023-04-28T06:31:27;982.84;;;9.86;100.00
29815;BME280;16708;50.426;7.664;2023-04-28T06:36:21;982.87;;;9.98;100.00
29815;BME280;16708;50.426;7.664;2023-04-28T06:41:16;982.82;;;10.20;100.00
29815;BME280;16708;50.426;7.664;2023-04-28T06:46:10;982.55;;;10.26;100.00
29815;BME280;16708;50.426;7.664;2023-04-28T06:51:04;982.29;;;10.27;100.00
29815;BME280;16708;50.426;7.664;2023-04-28T06:55:58;982.40;;;10.36;100.00
29815;BME280;16708;50.426;7.664;2023-04-28T07:00:52;982.71;;;10.45;100.00
29815;BME280;16708;50.426;7.664;2023-04-28T07:05:45;982.76;;;10.37;100.00
29815;BME280;16708;50.426;7.664;2023-04-28T07:10:39;982.58;;;10.53;100.00
29815;BME280;16708;50.426;7.664;2023-04-28T07:15:33;982.79;;;10.86;100.00
29815;BME280;16708;50.426;7.664;2023-04-28T07:20:27;982.83;;;11.10;100.00
29815;BME280;16708;50.426;7.664;2023-04-28T07:25:22;982.78;;;11.58;100.00
29815;BME280;16708;50.426;7.664;2023-04-28T07:30:19;982.90;;;11.39;100.00
29815;BME280;16708;50.426;7.664;2023-04-28T07:35:09;982.88;;;11.28;100.00
29815;BME280;16708;50.426;7.664;2023-04-28T07:40:02;982.75;;;11.27;100.00
29815;BME280;16708;50.426;7.664;2023-04-28T07:44:57;982.91;;;11.13;100.00
29815;BME280;16708;50.426;7.664;2023-04-28T07:49:51;982.81;;;11.34;100.00
29815;BME280;16708;50.426;7.664;2023-04-28T07:54:45;982.89;;;11.34;100.00
29815;BME280;16708;50.426;7.664;2023-04-28T07:59:39;983.00;;;11.42;100.00
29815;BME280;16708;50.426;7.664;2023-04-28T08:04:33;982.86;;;11.78;100.00
29815;BME280;16708;50.426;7.664;2023-04-28T08:09:24;983.02;;;11.97;100.00
29815;BME280;16708;50.426;7.664;2023-04-28T08:14:19;982.91;;;11.48;100.00
29815;BME280;16708;50.426;7.664;2023-04-28T08:19:12;983.16;;;12.01;100.00
29815;BME280;16708;50.426;7.664;2023-04-28T08:24:06;983.15;;;11.51;100.00
29815;BME280;16708;50.426;7.664;2023-04-28T08:28:59;983.13;;;11.73;100.00
29815;BME280;16708;50.426;7.664;2023-04-28T08:33:53;983.11;;;12.22;100.00
29815;BME280;16708;50.426;7.664;2023-04-28T08:38:47;983.04;;;12.90;100.00
29815;BME280;16708;50.426;7.664;2023-04-28T08:43:40;983.13;;;13.19;100.00
29815;BME280;16708;50.426;7.664;2023-04-28T08:48:33;983.04;;;13.75;100.00
29815;BME280;16708;50.426;7.664;2023-04-28T08:53:27;983.07;;;14.28;100.00
29815;BME280;16708;50.426;7.664;2023-04-28T08:58:22;983.04;;;14.24;100.00
29815;BME280;16708;50.426;7.664;2023-04-28T09:03:16;983.14;;;14.06;100.00
29815;BME280;16708;50.426;7.664;2023-04-28T09:13:05;983.15;;;15.06;100.00
29815;BME280;16708;50.426;7.664;2023-04-28T09:27:49;982.90;;;17.23;100.00
29815;BME280;16708;50.426;7.664;2023-04-28T09:32:44;983.02;;;15.82;100.00
29815;BME280;16708;50.426;7.664;2023-04-28T09:37:39;983.05;;;14.83;100.00
29815;BME280;16708;50.426;7.664;2023-04-28T09:42:32;983.06;;;15.49;100.00
29815;BME280;16708;50.426;7.664;2023-04-28T09:47:26;982.86;;;16.17;100.00
29815;BME280;16708;50.426;7.664;2023-04-28T09:52:21;982.86;;;15.40;100.00
29815;BME280;16708;50.426;7.664;2023-04-28T09:57:15;982.83;;;16.54;100.00
29815;BME280;16708;50.426;7.664;2023-04-28T10:02:10;982.76;;;19.10;100.00
29815;BME280;16708;50.426;7.664;2023-04-28T10:07:06;982.74;;;17.75;100.00
29815;BME280;16708;50.426;7.664;2023-04-28T10:12:00;982.71;;;16.84;100.00
29815;BME280;16708;50.426;7.664;2023-04-28T10:16:55;982.66;;;21.19;100.00
29815;BME280;16708;50.426;7.664;2023-04-28T10:41:27;982.49;;;17.93;100.00
29815;BME280;16708;50.426;7.664;2023-04-28T11:06:03;982.16;;;23.83;73.50
29815;BME280;16708;50.426;7.664;2023-04-28T11:15:52;982.15;;;22.17;94.62
29815;BME280;16708;50.426;7.664;2023-04-28T11:20:46;982.12;;;21.20;97.63
29815;BME280;16708;50.426;7.664;2023-04-28T11:25:39;982.08;;;22.78;86.31
29815;BME280;16708;50.426;7.664;2023-04-28T11:30:32;982.08;;;24.48;75.28
29815;BME280;16708;50.426;7.664;2023-04-28T11:40:23;982.12;;;23.82;70.77
29815;BME280;16708;50.426;7.664;2023-04-28T11:45:18;982.04;;;24.56;64.28
29815;BME280;16708;50.426;7.664;2023-04-28T11:50:13;981.96;;;28.99;46.18
29815;BME280;16708;50.426;7.664;2023-04-28T12:00:02;981.98;;;21.31;94.85
29815;BME280;16708;50.426;7.664;2023-04-28T12:04:55;981.87;;;20.67;100.00
29815;BME280;16708;50.426;7.664;2023-04-28T12:14:40;981.92;;;23.92;63.21
29815;BME280;16708;50.426;7.664;2023-04-28T12:19:36;981.79;;;25.66;56.12
29815;BME280;16708;50.426;7.664;2023-04-28T12:24:31;981.83;;;22.36;78.07
29815;BME280;16708;50.426;7.664;2023-04-28T12:29:27;981.86;;;21.64;91.84
29815;BME280;16708;50.426;7.664;2023-04-28T12:34:16;981.79;;;21.81;90.71
29815;BME280;16708;50.426;7.664;2023-04-28T12:39:10;981.82;;;23.16;82.93
29815;BME280;16708;50.426;7.664;2023-04-28T12:44:04;981.87;;;27.93;49.48
29815;BME280;16708;50.426;7.664;2023-04-28T12:49:00;981.81;;;24.22;66.83
29815;BME280;16708;50.426;7.664;2023-04-28T12:53:54;981.78;;;22.36;82.63
29815;BME280;16708;50.426;7.664;2023-04-28T12:58:48;981.75;;;22.88;84.51
29815;BME280;16708;50.426;7.664;2023-04-28T13:03:41;981.65;;;21.20;100.00
29815;BME280;16708;50.426;7.664;2023-04-28T13:08:34;981.80;;;20.20;100.00
29815;BME280;16708;50.426;7.664;2023-04-28T13:13:27;981.83;;;19.26;100.00
29815;BME280;16708;50.426;7.664;2023-04-28T13:18:19;981.57;;;20.86;100.00
29815;BME280;16708;50.426;7.664;2023-04-28T13:23:13;981.61;;;21.13;100.00
29815;BME280;16708;50.426;7.664;2023-04-28T13:28:08;981.56;;;21.79;100.00
29815;BME280;16708;50.426;7.664;2023-04-28T13:33:03;981.58;;;23.09;100.00
29815;BME280;16708;50.426;7.664;2023-04-28T13:37:58;981.55;;;25.41;100.00
29815;BME280;16708;50.426;7.664;2023-04-28T13:42:54;981.42;;;26.55;98.97
29815;BME280;16708;50.426;7.664;2023-04-28T13:47:50;981.41;;;27.39;80.22
29815;BME280;16708;50.426;7.664;2023-04-28T13:52:44;981.46;;;27.54;73.33
29815;BME280;16708;50.426;7.664;2023-04-28T13:57:39;981.42;;;22.96;100.00
29815;BME280;16708;50.426;7.664;2023-04-28T14:02:32;981.30;;;20.94;100.00
29815;BME280;16708;50.426;7.664;2023-04-28T14:07:25;981.42;;;19.04;100.00
29815;BME280;16708;50.426;7.664;2023-04-28T14:12:18;981.37;;;19.01;100.00
29815;BME280;16708;50.426;7.664;2023-04-28T14:17:11;981.32;;;19.39;100.00
29815;BME280;16708;50.426;7.664;2023-04-28T14:22:05;981.15;;;18.67;100.00
29815;BME280;16708;50.426;7.664;2023-04-28T14:26:58;981.16;;;18.49;100.00
29815;BME280;16708;50.426;7.664;2023-04-28T14:31:50;981.20;;;18.02;100.00
29815;BME280;16708;50.426;7.664;2023-04-28T14:36:44;981.34;;;17.73;100.00
29815;BME280;16708;50.426;7.664;2023-04-28T14:41:38;981.17;;;17.58;100.00
29815;BME280;16708;50.426;7.664;2023-04-28T14:46:31;981.08;;;17.34;100.00
29815;BME280;16708;50.426;7.664;2023-04-28T14:51:25;981.01;;;17.10;100.00
29815;BME280;16708;50.426;7.664;2023-04-28T14:56:19;980.95;;;17.01;100.00
29815;BME280;16708;50.426;7.664;2023-04-28T15:01:12;980.88;;;17.01;100.00
29815;BME280;16708;50.426;7.664;2023-04-28T15:06:04;981.01;;;16.88;100.00
29815;BME280;16708;50.426;7.664;2023-04-28T15:10:57;981.04;;;17.03;100.00
29815;BME280;16708;50.426;7.664;2023-04-28T15:15:52;981.33;;;17.00;100.00
29815;BME280;16708;50.426;7.664;2023-04-28T15:20:46;981.52;;;16.95;100.00
29815;BME280;16708;50.426;7.664;2023-04-28T15:25:40;981.41;;;19.46;100.00
29815;BME280;16708;50.426;7.664;2023-04-28T15:30:35;981.27;;;20.25;100.00
29815;BME280;16708;50.426;7.664;2023-04-28T15:35:30;981.30;;;23.11;100.00
29815;BME280;16708;50.426;7.664;2023-04-28T15:40:26;981.04;;;25.91;100.00
29815;BME280;16708;50.426;7.664;2023-04-28T15:45:22;981.12;;;26.45;96.46
29815;BME280;16708;50.426;7.664;2023-04-28T15:50:18;981.09;;;25.85;84.40
29815;BME280;16708;50.426;7.664;2023-04-28T15:55:13;981.10;;;21.46;100.00
29815;BME280;16708;50.426;7.664;2023-04-28T16:00:06;981.09;;;19.60;100.00
29815;BME280;16708;50.426;7.664;2023-04-28T16:04:59;981.37;;;18.65;100.00
29815;BME280;16708;50.426;7.664;2023-04-28T16:09:52;981.42;;;21.10;100.00
29815;BME280;16708;50.426;7.664;2023-04-28T16:14:46;981.28;;;24.70;99.33
29815;BME280;16708;50.426;7.664;2023-04-28T16:19:42;981.26;;;25.93;94.42
29815;BME280;16708;50.426;7.664;2023-04-28T16:24:37;981.22;;;21.56;100.00
29815;BME280;16708;50.426;7.664;2023-04-28T16:29:30;981.19;;;21.00;100.00
29815;BME280;16708;50.426;7.664;2023-04-28T16:34:24;981.26;;;21.16;100.00
29815;BME280;16708;50.426;7.664;2023-04-28T16:39:18;981.39;;;20.00;100.00
29815;BME280;16708;50.426;7.664;2023-04-28T16:44:12;981.38;;;23.39;100.00
29815;BME280;16708;50.426;7.664;2023-04-28T16:49:07;981.37;;;25.86;87.83
29815;BME280;16708;50.426;7.664;2023-04-28T16:54:02;981.53;;;26.47;77.44
29815;BME280;16708;50.426;7.664;2023-04-28T16:58:58;981.44;;;26.76;76.22
29815;BME280;16708;50.426;7.664;2023-04-28T17:03:53;981.49;;;26.73;68.18
29815;BME280;16708;50.426;7.664;2023-04-28T17:08:46;981.51;;;25.99;84.48
29815;BME280;16708;50.426;7.664;2023-04-28T17:13:41;981.51;;;25.93;81.70
29815;BME280;16708;50.426;7.664;2023-04-28T17:18:36;981.61;;;24.05;86.20
29815;BME280;16708;50.426;7.664;2023-04-28T17:23:29;981.68;;;19.40;100.00
29815;BME280;16708;50.426;7.664;2023-04-28T17:28:22;981.71;;;18.64;100.00
29815;BME280;16708;50.426;7.664;2023-04-28T17:33:16;981.69;;;18.25;100.00
29815;BME280;16708;50.426;7.664;2023-04-28T17:38:10;981.80;;;18.11;100.00
29815;BME280;16708;50.426;7.664;2023-04-28T17:43:03;981.84;;;17.78;100.00
29815;BME280;16708;50.426;7.664;2023-04-28T17:47:57;982.00;;;20.44;100.00
29815;BME280;16708;50.426;7.664;2023-04-28T17:52:52;982.13;;;20.39;100.00
29815;BME280;16708;50.426;7.664;2023-04-28T17:57:46;982.10;;;21.23;100.00
29815;BME280;16708;50.426;7.664;2023-04-28T18:02:41;982.04;;;19.50;100.00
29815;BME280;16708;50.426;7.664;2023-04-28T18:07:35;982.11;;;18.53;100.00
29815;BME280;16708;50.426;7.664;2023-04-28T18:12:29;982.14;;;17.75;100.00
29815;BME280;16708;50.426;7.664;2023-04-28T18:17:24;982.33;;;17.33;100.00
29815;BME280;16708;50.426;7.664;2023-04-28T18:22:18;982.40;;;17.10;100.00
29815;BME280;16708;50.426;7.664;2023-04-28T18:27:12;982.44;;;16.51;100.00
29815;BME280;16708;50.426;7.664;2023-04-28T18:32:03;982.56;;;15.89;100.00
29815;BME280;16708;50.426;7.664;2023-04-28T18:36:58;982.58;;;15.65;100.00
29815;BME280;16708;50.426;7.664;2023-04-28T18:41:52;982.59;;;15.28;100.00
29815;BME280;16708;50.426;7.664;2023-04-28T18:46:46;982.69;;;15.14;100.00
29815;BME280;16708;50.426;7.664;2023-04-28T18:51:40;982.79;;;14.89;100.00
29815;BME280;16708;50.426;7.664;2023-04-28T18:56:34;982.80;;;14.75;100.00
29815;BME280;16708;50.426;7.664;2023-04-28T19:01:30;982.86;;;14.63;100.00
29815;BME280;16708;50.426;7.664;2023-04-28T19:06:23;982.97;;;14.47;100.00
29815;BME280;16708;50.426;7.664;2023-04-28T19:11:17;983.08;;;14.38;100.00
29815;BME280;16708;50.426;7.664;2023-04-28T19:16:12;983.16;;;14.32;100.00
29815;BME280;16708;50.426;7.664;2023-04-28T19:21:05;983.20;;;14.19;100.00
29815;BME280;16708;50.426;7.664;2023-04-28T19:25:59;983.21;;;14.07;100.00
29815;BME280;16708;50.426;7.664;2023-04-28T19:30:53;983.35;;;13.92;100.00
29815;BME280;16708;50.426;7.664;2023-04-28T19:35:48;983.37;;;13.74;100.00
29815;BME280;16708;50.426;7.664;2023-04-28T19:40:41;983.40;;;13.64;100.00
29815;BME280;16708;50.426;7.664;2023-04-28T19:45:35;983.46;;;13.63;100.00
29815;BME280;16708;50.426;7.664;2023-04-28T19:50:29;983.48;;;13.50;100.00
29815;BME280;16708;50.426;7.664;2023-04-28T19:55:23;983.59;;;13.36;100.00
29815;BME280;16708;50.426;7.664;2023-04-28T20:00:17;983.64;;;13.30;100.00
29815;BME280;16708;50.426;7.664;2023-04-28T20:05:11;983.55;;;13.23;100.00
29815;BME280;16708;50.426;7.664;2023-04-28T20:10:05;983.68;;;13.19;100.00
29815;BME280;16708;50.426;7.664;2023-04-28T20:14:57;983.64;;;13.04;100.00
29815;BME280;16708;50.426;7.664;2023-04-28T20:19:52;983.56;;;12.97;100.00
29815;BME280;16708;50.426;7.664;2023-04-28T20:24:46;983.61;;;12.94;100.00
29815;BME280;16708;50.426;7.664;2023-04-28T20:29:41;983.67;;;12.75;100.00
29815;BME280;16708;50.426;7.664;2023-04-28T20:34:35;983.72;;;12.66;100.00
29815;BME280;16708;50.426;7.664;2023-04-28T20:39:30;983.80;;;12.64;100.00
29815;BME280;16708;50.426;7.664;2023-04-28T20:44:22;983.77;;;12.48;100.00
29815;BME280;16708;50.426;7.664;2023-04-28T20:49:17;983.73;;;12.36;100.00
29815;BME280;16708;50.426;7.664;2023-04-28T20:54:11;983.74;;;12.26;100.00
29815;BME280;16708;50.426;7.664;2023-04-28T20:59:05;983.72;;;12.18;100.00
29815;BME280;16708;50.426;7.664;2023-04-28T21:03:58;983.65;;;12.04;100.00
29815;BME280;16708;50.426;7.664;2023-04-28T21:08:53;983.70;;;12.00;100.00
29815;BME280;16708;50.426;7.664;2023-04-28T21:13:47;983.68;;;11.93;100.00
29815;BME280;16708;50.426;7.664;2023-04-28T21:18:41;983.70;;;11.93;100.00
29815;BME280;16708;50.426;7.664;2023-04-28T21:23:35;983.68;;;11.87;100.00
29815;BME280;16708;50.426;7.664;2023-04-28T21:28:30;983.76;;;11.79;100.00
29815;BME280;16708;50.426;7.664;2023-04-28T21:33:24;983.79;;;11.74;100.00
29815;BME280;16708;50.426;7.664;2023-04-28T21:38:19;983.81;;;11.76;100.00
29815;BME280;16708;50.426;7.664;2023-04-28T21:43:12;983.86;;;11.72;100.00
29815;BME280;16708;50.426;7.664;2023-04-28T21:48:07;983.75;;;11.78;100.00
29815;BME280;16708;50.426;7.664;2023-04-28T21:53:01;983.77;;;11.76;100.00
29815;BME280;16708;50.426;7.664;2023-04-28T21:57:56;983.80;;;11.84;100.00
29815;BME280;16708;50.426;7.664;2023-04-28T22:02:49;983.72;;;11.95;100.00
29815;BME280;16708;50.426;7.664;2023-04-28T22:07:43;983.78;;;12.03;100.00
29815;BME280;16708;50.426;7.664;2023-04-28T22:12:38;983.79;;;12.57;100.00
29815;BME280;16708;50.426;7.664;2023-04-28T22:17:32;983.78;;;12.64;100.00
29815;BME280;16708;50.426;7.664;2023-04-28T22:22:26;983.74;;;12.81;100.00
29815;BME280;16708;50.426;7.664;2023-04-28T22:27:21;983.80;;;12.93;100.00
29815;BME280;16708;50.426;7.664;2023-04-28T22:32:16;983.80;;;12.77;100.00
29815;BME280;16708;50.426;7.664;2023-04-28T22:37:10;983.79;;;12.52;100.00
29815;BME280;16708;50.426;7.664;2023-04-28T22:42:04;983.81;;;12.38;100.00
29815;BME280;16708;50.426;7.664;2023-04-28T22:46:58;983.86;;;12.14;100.00
29815;BME280;16708;50.426;7.664;2023-04-28T22:51:52;983.94;;;12.04;100.00
29815;BME280;16708;50.426;7.664;2023-04-28T22:56:46;984.00;;;11.97;100.00
29815;BME280;16708;50.426;7.664;2023-04-28T23:01:40;983.98;;;11.99;100.00
29815;BME280;16708;50.426;7.664;2023-04-28T23:06:34;984.07;;;12.17;100.00
29815;BME280;16708;50.426;7.664;2023-04-28T23:11:26;984.14;;;12.31;100.00
29815;BME280;16708;50.426;7.664;2023-04-28T23:16:21;984.07;;;12.45;100.00
29815;BME280;16708;50.426;7.664;2023-04-28T23:21:14;984.07;;;12.53;100.00
29815;BME280;16708;50.426;7.664;2023-04-28T23:26:06;984.12;;;12.48;100.00
29815;BME280;16708;50.426;7.664;2023-04-28T23:30:58;984.03;;;12.56;100.00
29815;BME280;16708;50.426;7.664;2023-04-28T23:35:53;984.11;;;12.58;100.00
29815;BME280;16708;50.426;7.664;2023-04-28T23:40:48;984.07;;;12.53;100.00
29815;BME280;16708;50.426;7.664;2023-04-28T23:45:39;984.06;;;12.48;100.00
29815;BME280;16708;50.426;7.664;2023-04-28T23:50:33;984.19;;;12.39;100.00
29815;BME280;16708;50.426;7.664;2023-04-28T23:55:27;984.26;;;12.28;100.00
